KZZV/ZZV METAR and TAF weather

Enter ICAO airport designator
Station Type Date Time Source
KZZV METAR 2021/08/05 03:53 UTC NOAA

KZZV 050353Z AUTO 35003KT 10SM CLR 19/14 A3012 RMK AO2 SLP192 T01890139


Station Type Date Time Source
KZZV Decoded METAR 2021/08/05 03:53 UTC NOAA

ZANESVILLE MUNICIPAL AIRPORT , OH, United States (KZZV) 39-57N 81-54W 268M
Aug 04, 2021 - 11:53 PM EDT / 2021.08.05 0353 UTC
Wind: from the N (350 degrees) at 3 MPH (3 KT):0
Visibility: 10 mile(s):0
Sky conditions: clear
Temperature: 66.0 F (18.9 C)
Dew Point: 57.0 F (13.9 C)
Relative Humidity: 72%
Pressure (altimeter): 30.12 in. Hg (1019 hPa)
ob: KZZV 050353Z AUTO 35003KT 10SM CLR 19/14 A3012 RMK AO2 SLP192 T01890139
cycle: 4

Station Type Date Time Source
KZZV TAF 2021/08/04 18:30 UTC NOAA

TAF KZZV 041728Z 0418/0518 05005KT P6SM SCT050 BKN100
FM042300 03004KT P6SM SCT100

Example: see airport list